Time;durP1;ratioP1;P1;durP2;ratioP2;P2;SDS_P1;SDS_P2;PMS_P1;PMS_P2;Temp;Humidity;BMP_temperature;BMP_pressure;BME280_temperature;BME280_humidity;BME280_pressure;Samples;Min_cycle;Max_cycle;Signal;HPM_P1;HPM_P2
2022/07/14 00:02:17;;;;;;;9.37;2.20;;;16.70;99.90;;;;;;5092415;28;20161;-70
2022/07/14 00:04:43;;;;;;;12.23;2.77;;;16.70;99.90;;;;;;5093618;28;20048;-70
2022/07/14 00:07:09;;;;;;;8.00;2.43;;;16.70;99.90;;;;;;5093560;28;20048;-70
2022/07/14 00:09:34;;;;;;;9.77;2.47;;;16.70;99.90;;;;;;5093883;28;20055;-70
2022/07/14 00:12:00;;;;;;;10.50;3.03;;;16.70;99.90;;;;;;5093608;28;20385;-70
2022/07/14 00:14:26;;;;;;;11.67;2.67;;;16.70;99.90;;;;;;5093978;28;20387;-70
2022/07/14 00:16:51;;;;;;;9.57;2.07;;;16.70;99.90;;;;;;5093547;28;20044;-70
2022/07/14 00:19:17;;;;;;;11.43;3.30;;;16.60;99.90;;;;;;5093751;28;20120;-70
2022/07/14 00:21:43;;;;;;;8.77;2.63;;;16.50;99.90;;;;;;5093420;28;20040;-70
2022/07/14 00:24:11;;;;;;;12.13;2.97;;;16.50;99.90;;;;;;5093494;28;20361;-70
2022/07/14 00:26:39;;;;;;;12.10;2.50;;;16.50;99.90;;;;;;5093660;28;20051;-70
2022/07/14 00:29:06;;;;;;;10.83;2.57;;;16.50;99.90;;;;;;5093393;28;20098;-70
2022/07/14 00:31:32;;;;;;;9.47;2.33;;;16.40;99.90;;;;;;5126401;28;20098;-72
2022/07/14 00:33:59;;;;;;;8.20;1.83;;;16.40;99.90;;;;;;5093358;28;20087;-70
2022/07/14 00:36:29;;;;;;;11.63;2.87;;;16.40;99.90;;;;;;5093669;28;20403;-70
2022/07/14 00:38:55;;;;;;;8.80;2.53;;;16.40;99.90;;;;;;5093044;28;20044;-70
2022/07/14 00:41:22;;;;;;;8.73;2.57;;;16.30;99.90;;;;;;5094829;28;20052;-71
2022/07/14 00:43:47;;;;;;;10.43;2.53;;;16.30;99.90;;;;;;5097040;28;20403;-69
2022/07/14 00:46:13;;;;;;;12.43;3.13;;;16.30;99.90;;;;;;5097257;28;20084;-69
2022/07/14 00:48:39;;;;;;;9.30;2.17;;;16.20;99.90;;;;;;5097215;28;20054;-72
2022/07/14 00:51:05;;;;;;;9.37;2.73;;;16.20;99.90;;;;;;5097717;28;20040;-69
2022/07/14 00:53:30;;;;;;;11.07;2.77;;;16.10;99.90;;;;;;5097205;28;20044;-69
2022/07/14 00:55:57;;;;;;;11.17;2.10;;;16.10;99.90;;;;;;5097109;28;20423;-69
2022/07/14 00:58:22;;;;;;;12.27;2.70;;;16.10;99.90;;;;;;5097519;28;20052;-70
2022/07/14 01:00:49;;;;;;;10.53;2.40;;;16.10;99.90;;;;;;5096918;28;20298;-69
2022/07/14 01:03:15;;;;;;;8.47;2.30;;;16.10;99.90;;;;;;5096690;28;20052;-69
2022/07/14 01:05:40;;;;;;;11.13;2.40;;;16.10;99.90;;;;;;5096886;28;20128;-70
2022/07/14 01:08:07;;;;;;;10.63;2.50;;;16.00;99.90;;;;;;5096858;28;20044;-69
2022/07/14 01:10:32;;;;;;;14.40;2.90;;;16.00;99.90;;;;;;5096830;28;20051;-69
2022/07/14 01:13:03;;;;;;;10.20;2.63;;;16.00;99.90;;;;;;5096704;28;20286;-69
2022/07/14 01:15:29;;;;;;;13.53;2.40;;;15.90;99.90;;;;;;5097263;28;20429;-69
2022/07/14 01:17:55;;;;;;;10.23;2.60;;;15.90;99.90;;;;;;5097168;28;20365;-69
2022/07/14 01:20:23;;;;;;;10.53;2.50;;;15.80;99.90;;;;;;5096361;28;20052;-69
2022/07/14 01:22:49;;;;;;;7.73;2.27;;;15.90;99.90;;;;;;5096550;28;20048;-69
2022/07/14 01:25:20;;;;;;;9.60;2.83;;;15.90;99.90;;;;;;5096511;28;20358;-69
2022/07/14 01:27:46;;;;;;;11.33;3.07;;;15.80;99.90;;;;;;5096539;28;20044;-69
2022/07/14 01:30:11;;;;;;;10.80;2.40;;;15.70;99.90;;;;;;5096455;28;20372;-69
2022/07/14 01:32:37;;;;;;;9.53;2.70;;;15.70;99.90;;;;;;5097189;28;20278;-69
2022/07/14 01:35:07;;;;;;;9.17;2.63;;;15.70;99.90;;;;;;5096340;28;20494;-69
2022/07/14 01:37:33;;;;;;;6.90;2.43;;;15.70;99.90;;;;;;5096158;28;20123;-69
2022/07/14 01:40:00;;;;;;;8.43;2.23;;;15.70;99.90;;;;;;5096190;28;20760;-69
2022/07/14 01:42:26;;;;;;;6.43;2.53;;;15.70;99.90;;;;;;5096142;28;20395;-70
2022/07/14 01:44:52;;;;;;;9.80;2.70;;;15.60;99.90;;;;;;5096138;28;20281;-70
2022/07/14 01:47:18;;;;;;;7.23;2.33;;;15.60;99.90;;;;;;5095921;28;20048;-70
2022/07/14 01:49:43;;;;;;;12.27;2.63;;;15.50;99.90;;;;;;5096094;28;20301;-70
2022/07/14 01:52:09;;;;;;;9.27;2.97;;;15.60;99.90;;;;;;5095324;28;20166;-70
2022/07/14 01:54:35;;;;;;;8.50;2.57;;;15.50;99.90;;;;;;5095429;28;20055;-69
2022/07/14 01:57:00;;;;;;;7.73;2.50;;;15.50;99.90;;;;;;5095891;28;20042;-70
2022/07/14 01:59:26;;;;;;;7.57;2.67;;;15.50;99.90;;;;;;5095864;28;20048;-70
2022/07/14 02:01:52;;;;;;;11.77;3.10;;;15.50;99.90;;;;;;5094650;28;20044;-70
2022/07/14 02:04:19;;;;;;;9.37;2.23;;;15.50;99.90;;;;;;5095133;28;20097;-70
2022/07/14 02:06:50;;;;;;;10.97;3.23;;;15.50;99.90;;;;;;5095750;28;20093;-70
2022/07/14 02:09:17;;;;;;;8.63;2.37;;;15.50;99.90;;;;;;5095529;28;20742;-70
2022/07/14 02:14:29;;;;;;;9.60;2.70;;;15.40;99.90;;;;;;5095706;28;20302;-70
2022/07/14 02:16:55;;;;;;;9.63;2.97;;;15.30;99.90;;;;;;5096075;28;20051;-70
2022/07/14 02:19:23;;;;;;;9.23;2.57;;;15.30;99.90;;;;;;5094334;28;20369;-70
2022/07/14 02:21:51;;;;;;;6.77;2.63;;;15.30;99.90;;;;;;5095006;28;20793;-70
2022/07/14 02:24:18;;;;;;;11.20;3.10;;;15.20;99.90;;;;;;5095407;28;20282;-70
2022/07/14 02:26:43;;;;;;;9.67;2.80;;;15.10;99.90;;;;;;5094121;28;20579;-70
2022/07/14 02:29:10;;;;;;;6.53;2.53;;;15.20;99.90;;;;;;5093929;28;20286;-70
2022/07/14 02:31:36;;;;;;;10.93;3.30;;;15.20;99.90;;;;;;5095303;28;20040;-70
2022/07/14 02:34:03;;;;;;;9.47;3.43;;;15.20;99.90;;;;;;5095087;28;20754;-70
2022/07/14 02:36:29;;;;;;;8.17;2.90;;;15.10;99.90;;;;;;5095240;28;20278;-70
2022/07/14 02:38:55;;;;;;;8.03;2.83;;;15.00;99.90;;;;;;5094925;28;20274;-70
2022/07/14 02:41:21;;;;;;;11.67;3.00;;;15.00;99.90;;;;;;5095086;28;20043;-70
2022/07/14 02:43:47;;;;;;;8.17;3.07;;;15.00;99.90;;;;;;5094986;28;20286;-70
2022/07/14 02:46:13;;;;;;;8.43;2.90;;;15.00;99.90;;;;;;5094983;28;20278;-70
2022/07/14 02:48:38;;;;;;;11.63;3.17;;;15.00;99.90;;;;;;5095280;28;20386;-70
2022/07/14 02:51:07;;;;;;;8.27;3.17;;;15.00;99.90;;;;;;5094874;28;20040;-70
2022/07/14 02:53:34;;;;;;;8.30;2.90;;;15.00;99.90;;;;;;5095106;28;20048;-70
2022/07/14 02:56:04;;;;;;;8.57;3.13;;;14.90;99.90;;;;;;5095027;28;20278;-70
2022/07/14 02:58:30;;;;;;;8.53;3.07;;;14.90;99.90;;;;;;5094839;28;20270;-70
2022/07/14 03:00:56;;;;;;;8.57;3.07;;;14.90;99.90;;;;;;5094599;28;20388;-70
2022/07/14 03:03:22;;;;;;;8.20;2.80;;;14.90;99.90;;;;;;5094558;28;20051;-70
2022/07/14 03:05:49;;;;;;;8.43;2.73;;;14.90;99.90;;;;;;5094423;28;20044;-69
2022/07/14 03:08:15;;;;;;;10.90;2.83;;;14.90;99.90;;;;;;5094785;28;20300;-70
2022/07/14 03:10:41;;;;;;;7.67;2.77;;;14.90;99.90;;;;;;5094594;28;20829;-70
2022/07/14 03:13:07;;;;;;;9.17;3.07;;;14.80;99.90;;;;;;5094984;28;20399;-70
2022/07/14 03:15:33;;;;;;;10.43;3.20;;;14.80;99.90;;;;;;5094517;28;20312;-69
2022/07/14 03:17:59;;;;;;;8.53;2.70;;;14.80;99.90;;;;;;5094842;28;20325;-70
2022/07/14 03:20:25;;;;;;;8.27;3.03;;;14.80;99.90;;;;;;5094344;28;20092;-70
2022/07/14 03:22:50;;;;;;;8.77;2.97;;;14.70;99.90;;;;;;5094350;28;20483;-69
2022/07/14 03:25:16;;;;;;;8.07;2.90;;;14.70;99.90;;;;;;5093911;28;20079;-69
2022/07/14 03:27:46;;;;;;;7.80;2.67;;;14.70;99.90;;;;;;5094479;28;20059;-69
2022/07/14 03:30:13;;;;;;;8.03;2.70;;;14.70;99.90;;;;;;5093784;28;20048;-69
2022/07/14 03:32:39;;;;;;;6.90;3.23;;;14.70;99.90;;;;;;5094156;28;20357;-69
2022/07/14 03:35:07;;;;;;;9.20;3.03;;;14.70;99.90;;;;;;5093403;28;20370;-70
2022/07/14 03:37:34;;;;;;;10.23;2.80;;;14.60;99.90;;;;;;5093629;28;20399;-69
2022/07/14 03:40:00;;;;;;;7.90;3.07;;;14.60;99.90;;;;;;5094038;28;20290;-70
2022/07/14 03:42:27;;;;;;;8.90;2.60;;;14.60;99.90;;;;;;5093917;28;20305;-70
2022/07/14 03:44:55;;;;;;;5.60;2.50;;;14.60;99.90;;;;;;5093922;28;20297;-70
2022/07/14 03:47:21;;;;;;;10.80;3.30;;;14.60;99.90;;;;;;5094406;28;20329;-70
2022/07/14 03:49:47;;;;;;;9.33;3.30;;;14.50;99.90;;;;;;5093846;28;20309;-70
2022/07/14 03:52:13;;;;;;;8.93;3.23;;;14.60;99.90;;;;;;5093844;28;20276;-70
2022/07/14 03:54:42;;;;;;;8.60;2.80;;;14.50;99.90;;;;;;5092803;28;20365;-69
2022/07/14 03:57:08;;;;;;;10.13;3.27;;;14.40;99.90;;;;;;5093534;28;20056;-70
2022/07/14 03:59:39;;;;;;;8.53;2.77;;;14.40;99.90;;;;;;5093946;28;20368;-69
2022/07/14 04:02:05;;;;;;;9.90;2.60;;;14.40;99.90;;;;;;5094392;28;20123;-69
2022/07/14 04:04:31;;;;;;;6.20;2.73;;;14.40;99.90;;;;;;5093202;28;20325;-69
2022/07/14 04:06:56;;;;;;;6.60;2.87;;;14.40;99.90;;;;;;5093551;28;20040;-69
2022/07/14 04:09:22;;;;;;;5.90;2.47;;;14.50;99.90;;;;;;5093582;28;20055;-69
2022/07/14 04:11:48;;;;;;;5.60;2.47;;;14.50;99.90;;;;;;5094139;28;20048;-69
2022/07/14 04:14:14;;;;;;;8.83;2.70;;;14.40;99.90;;;;;;5093523;28;20093;-70
2022/07/14 04:16:40;;;;;;;8.20;2.50;;;14.50;99.90;;;;;;5092752;28;20310;-69
2022/07/14 04:19:06;;;;;;;10.63;2.83;;;14.50;99.90;;;;;;5093534;28;20441;-69
2022/07/14 04:21:32;;;;;;;7.83;2.90;;;14.50;99.90;;;;;;5093431;28;20321;-69
2022/07/14 04:23:57;;;;;;;9.27;2.40;;;14.60;99.90;;;;;;5093982;28;20734;-69
2022/07/14 04:26:23;;;;;;;10.03;2.70;;;14.60;99.90;;;;;;5093475;28;20044;-69
2022/07/14 04:28:49;;;;;;;8.53;2.80;;;14.60;99.90;;;;;;5093973;28;20052;-70
2022/07/14 04:31:14;;;;;;;7.87;2.77;;;14.70;99.90;;;;;;5093153;28;20051;-70
2022/07/14 04:33:40;;;;;;;7.17;2.37;;;14.80;99.90;;;;;;5093349;28;20040;-69
2022/07/14 04:36:07;;;;;;;6.80;2.43;;;14.80;99.90;;;;;;5093336;28;20051;-69
2022/07/14 04:38:33;;;;;;;7.80;2.20;;;14.80;99.90;;;;;;5093254;28;20121;-69
2022/07/14 04:41:00;;;;;;;11.70;2.73;;;14.90;99.90;;;;;;5092862;28;20342;-69
2022/07/14 04:43:26;;;;;;;9.17;2.20;;;15.00;99.90;;;;;;5093795;28;20429;-69
2022/07/14 04:45:52;;;;;;;7.93;2.57;;;15.00;99.90;;;;;;5093781;28;20318;-69
2022/07/14 04:48:18;;;;;;;7.03;2.20;;;15.10;99.90;;;;;;5093252;28;20088;-69
2022/07/14 04:53:27;;;;;;;7.50;2.40;;;15.30;99.90;;;;;;5093731;28;20051;-69
2022/07/14 04:55:53;;;;;;;9.27;2.67;;;15.30;99.90;;;;;;5093186;28;20278;-69
2022/07/14 04:58:19;;;;;;;10.27;2.70;;;15.40;99.90;;;;;;5093136;28;20044;-70
2022/07/14 05:00:45;;;;;;;6.53;2.10;;;15.50;99.90;;;;;;5093037;28;20040;-69
2022/07/14 05:03:10;;;;;;;7.70;2.50;;;15.60;99.90;;;;;;5093103;28;20040;-70
2022/07/14 05:05:36;;;;;;;9.60;2.80;;;15.70;99.90;;;;;;5093109;28;20051;-69
2022/07/14 05:08:02;;;;;;;8.93;3.17;;;15.70;99.90;;;;;;5075282;28;20139;-69
2022/07/14 05:10:28;;;;;;;9.73;2.70;;;15.80;99.90;;;;;;5093073;28;20048;-70
2022/07/14 05:12:53;;;;;;;8.87;2.00;;;15.90;99.90;;;;;;5093046;28;20488;-70
2022/07/14 05:15:20;;;;;;;6.77;2.30;;;16.00;99.90;;;;;;5093201;28;20123;-70
2022/07/14 05:17:45;;;;;;;9.50;2.70;;;16.10;99.90;;;;;;5092318;28;20040;-70
2022/07/14 05:20:11;;;;;;;7.60;2.60;;;16.20;99.90;;;;;;5093486;28;20290;-69
2022/07/14 05:22:38;;;;;;;8.13;2.30;;;16.20;99.90;;;;;;5093644;28;20125;-69
2022/07/14 05:25:08;;;;;;;9.67;2.07;;;16.30;99.90;;;;;;5092911;28;20101;-69
2022/07/14 05:27:36;;;;;;;7.57;2.30;;;16.40;99.90;;;;;;5095157;28;20317;-69
2022/07/14 05:30:06;;;;;;;8.33;2.10;;;16.50;99.90;;;;;;5096546;28;20322;-69
2022/07/14 05:32:32;;;;;;;8.87;2.67;;;16.60;99.90;;;;;;5096372;28;20286;-69
2022/07/14 05:34:58;;;;;;;9.07;2.53;;;16.80;99.90;;;;;;5096976;28;20343;-69
2022/07/14 05:37:24;;;;;;;10.77;2.77;;;16.90;99.90;;;;;;5096427;28;20097;-70
2022/07/14 05:39:50;;;;;;;10.47;2.30;;;17.00;99.90;;;;;;5096364;28;20290;-70
2022/07/14 05:42:22;;;;;;;10.20;2.30;;;17.10;99.90;;;;;;5129250;27;20302;-70
2022/07/14 05:44:48;;;;;;;9.17;2.67;;;17.30;99.90;;;;;;5096220;28;20044;-70
2022/07/14 05:47:14;;;;;;;13.37;2.63;;;17.50;99.90;;;;;;5096701;28;20591;-70
2022/07/14 05:49:43;;;;;;;6.33;1.87;;;17.70;99.90;;;;;;5096194;28;20492;-70
2022/07/14 05:52:13;;;;;;;10.67;2.40;;;17.80;99.90;;;;;;5095068;28;20036;-71
2022/07/14 05:54:40;;;;;;;9.00;2.30;;;18.10;99.90;;;;;;5095071;28;20052;-70
2022/07/14 05:57:08;;;;;;;9.70;2.17;;;20.20;99.90;;;;;;5095982;28;20048;-70
2022/07/14 05:59:35;;;;;;;8.23;2.27;;;20.30;99.90;;;;;;5096743;28;20044;-70
2022/07/14 06:02:01;;;;;;;6.30;1.97;;;21.80;99.90;;;;;;5095885;28;20654;-70
2022/07/14 06:04:28;;;;;;;9.23;2.50;;;22.70;99.90;;;;;;5095894;28;20109;-70
2022/07/14 06:06:53;;;;;;;7.57;2.10;;;22.90;90.60;;;;;;5096655;28;20044;-70
2022/07/14 06:09:21;;;;;;;7.80;2.13;;;23.00;99.30;;;;;;5096047;28;20154;-70
2022/07/14 06:11:46;;;;;;;9.50;2.10;;;23.10;97.60;;;;;;5095725;28;20502;-70
2022/07/14 06:14:14;;;;;;;7.50;2.07;;;23.90;99.90;;;;;;5095733;28;20048;-71
2022/07/14 06:16:40;;;;;;;7.83;2.40;;;25.00;92.80;;;;;;5096447;28;20051;-70
2022/07/14 06:19:06;;;;;;;7.10;2.33;;;26.50;61.80;;;;;;5095960;28;20066;-70
2022/07/14 06:21:32;;;;;;;9.77;2.33;;;27.00;60.20;;;;;;5096005;28;20123;-70
2022/07/14 06:23:57;;;;;;;6.97;2.23;;;27.40;66.80;;;;;;5095832;28;20043;-70
2022/07/14 06:26:23;;;;;;;7.80;2.23;;;;;;;;;;5094243;28;20057;-71
2022/07/14 06:28:49;;;;;;;8.73;2.03;;;;;;;;;;5095418;28;20075;-70
2022/07/14 06:31:15;;;;;;;5.60;1.60;;;;;;;;;;5096116;28;20040;-70
2022/07/14 06:33:43;;;;;;;5.97;1.80;;;29.80;47.30;;;;;;5095289;28;20052;-70
2022/07/14 06:36:09;;;;;;;7.43;2.03;;;;;;;;;;5095470;28;20055;-70
2022/07/14 06:38:35;;;;;;;8.77;2.30;;;30.30;52.70;;;;;;5095147;28;20048;-70
2022/07/14 06:41:01;;;;;;;4.18;1.60;;;30.40;58.60;;;;;;5094905;28;20449;-71
2022/07/14 06:43:27;;;;;;;4.90;1.77;;;;;;;;;;5095010;28;20048;-71
2022/07/14 06:45:54;;;;;;;6.10;1.90;;;;;;;;;;5128663;27;20384;-71
2022/07/14 06:48:23;;;;;;;7.22;2.28;;;;;;;;;;5095051;28;20087;-72
2022/07/14 06:50:49;;;;;;;6.95;1.90;;;;;;;;;;5095794;28;20052;-71
2022/07/14 06:53:15;;;;;;;7.90;1.92;;;;;;;;;;5094947;28;20168;-71
2022/07/14 06:55:40;;;;;;;5.18;1.70;;;30.50;79.20;;;;;;5095680;28;20044;-71
2022/07/14 06:58:06;;;;;;;5.40;1.50;;;29.50;45.20;;;;;;5094888;28;20483;-71
2022/07/14 07:00:32;;;;;;;8.30;1.90;;;29.00;47.20;;;;;;5094731;28;20101;-71
2022/07/14 07:02:58;;;;;;;6.75;1.98;;;;;;;;;;5094775;28;20048;-71
2022/07/14 07:08:09;;;;;;;5.93;1.60;;;30.20;83.80;;;;;;5095348;28;20052;-71
2022/07/14 07:10:40;;;;;;;6.25;1.70;;;29.50;44.50;;;;;;5094587;28;20364;-71
2022/07/14 07:13:07;;;;;;;8.43;1.73;;;;;;;;;;5094567;28;20047;-71
2022/07/14 07:15:35;;;;;;;5.95;1.63;;;27.80;46.60;;;;;;5094442;28;20051;-71
2022/07/14 07:18:01;;;;;;;5.78;1.85;;;28.10;47.50;;;;;;5094198;28;20372;-71
2022/07/14 07:20:27;;;;;;;8.48;1.90;;;28.90;46.90;;;;;;5094433;28;20060;-72
2022/07/14 07:22:53;;;;;;;5.93;1.58;;;29.50;45.90;;;;;;5094292;28;20173;-71
2022/07/14 07:25:19;;;;;;;4.85;1.30;;;29.50;45.00;;;;;;5094284;28;20083;-71
2022/07/14 07:27:45;;;;;;;4.20;1.48;;;;;;;;;;5093122;28;20077;-71
2022/07/14 07:30:11;;;;;;;4.15;1.58;;;;;;;;;;5094230;28;20083;-72
2022/07/14 07:32:37;;;;;;;4.30;1.30;;;31.50;58.20;;;;;;5094141;28;20043;-72
2022/07/14 07:35:04;;;;;;;3.55;1.40;;;;;;;;;;5094184;28;20044;-72
2022/07/14 07:37:29;;;;;;;4.35;1.35;;;30.60;39.80;;;;;;5094650;28;20044;-72
2022/07/14 07:39:58;;;;;;;5.72;1.75;;;29.60;41.90;;;;;;5094124;28;20142;-72
2022/07/14 07:42:25;;;;;;;5.95;2.22;;;28.80;56.80;;;;;;5093563;28;20395;-72
2022/07/14 07:44:51;;;;;;;5.00;1.48;;;28.20;65.50;;;;;;5094574;28;20055;-71
2022/07/14 07:47:17;;;;;;;6.63;1.70;;;28.30;62.10;;;;;;5094506;28;20130;-71
2022/07/14 07:49:43;;;;;;;6.95;1.70;;;29.00;45.30;;;;;;5092645;28;20051;-71
2022/07/14 07:52:08;;;;;;;4.00;1.50;;;29.70;43.90;;;;;;5093920;28;20088;-71
2022/07/14 07:54:34;;;;;;;4.82;1.90;;;29.90;42.50;;;;;;5075998;28;20036;-72
2022/07/14 07:57:00;;;;;;;4.45;1.38;;;29.80;42.50;;;;;;5093849;28;20036;-75
2022/07/14 07:59:26;;;;;;;5.85;1.52;;;30.20;42.50;;;;;;5093780;28;20079;-73
2022/07/14 08:01:52;;;;;;;3.78;1.38;;;30.50;42.20;;;;;;5093689;28;20098;-73
2022/07/14 08:04:17;;;;;;;5.57;1.60;;;30.30;41.80;;;;;;5093733;28;20135;-73
2022/07/14 08:06:43;;;;;;;5.25;1.63;;;30.00;42.10;;;;;;5092423;28;20039;-70
2022/07/14 08:09:13;;;;;;;5.45;1.67;;;30.00;42.60;;;;;;5093380;28;20079;-76
2022/07/14 08:11:40;;;;;;;4.30;1.42;;;30.40;42.40;;;;;;5093548;28;20040;-76
2022/07/14 08:14:47;;;;;;;5.82;1.65;;;31.00;41.30;;;;;;5093562;28;20541;-74
2022/07/14 08:16:54;;;;;;;3.88;1.30;;;31.50;40.70;;;;;;5093576;28;20055;-75
2022/07/14 08:19:20;;;;;;;6.43;1.60;;;31.80;39.60;;;;;;5093065;28;20342;-76
2022/07/14 08:21:46;;;;;;;5.30;1.80;;;31.50;39.40;;;;;;5092034;28;20050;-76
2022/07/14 08:24:12;;;;;;;4.35;1.45;;;30.70;40.40;;;;;;5092222;28;20170;-75
2022/07/14 08:26:39;;;;;;;4.03;1.35;;;;;;;;;;5093458;28;20127;-77
2022/07/14 08:29:06;;;;;;;5.70;1.58;;;30.10;40.60;;;;;;5093723;28;20058;-75
2022/07/14 08:31:32;;;;;;;5.68;1.55;;;;;;;;;;5093409;28;20040;-74
2022/07/14 08:33:58;;;;;;;4.45;1.63;;;29.10;42.30;;;;;;5093503;28;20052;-73
2022/07/14 08:36:24;;;;;;;4.22;1.45;;;28.90;43.10;;;;;;5093722;28;20116;-72
2022/07/14 08:38:49;;;;;;;2.88;1.20;;;28.60;43.50;;;;;;5093184;28;20076;-72
2022/07/14 08:41:15;;;;;;;6.15;1.70;;;;;;;;;;5075705;28;20357;-72
2022/07/14 08:43:42;;;;;;;6.20;1.48;;;28.10;43.30;;;;;;5093295;28;20051;-72
2022/07/14 08:46:08;;;;;;;2.63;1.08;;;27.90;45.70;;;;;;5093578;28;20169;-71
2022/07/14 08:48:34;;;;;;;5.22;1.55;;;27.50;44.80;;;;;;5092350;28;20048;-72
2022/07/14 08:51:00;;;;;;;4.70;1.38;;;26.90;44.90;;;;;;5093012;28;20044;-69
2022/07/14 08:53:27;;;;;;;4.97;1.38;;;26.60;46.30;;;;;;5093209;28;20118;-69
2022/07/14 08:55:53;;;;;;;4.70;1.48;;;26.50;46.50;;;;;;5093600;28;20487;-70
2022/07/14 08:58:19;;;;;;;6.40;1.55;;;26.20;46.90;;;;;;5092038;28;20040;-71
2022/07/14 09:00:45;;;;;;;5.82;1.45;;;26.00;47.60;;;;;;5091886;28;20499;-70
2022/07/14 09:03:10;;;;;;;5.45;1.50;;;26.00;48.10;;;;;;5095724;28;20044;-69
2022/07/14 09:05:44;;;;;;;3.67;1.20;;;26.00;48.30;;;;;;5097529;28;20173;-71
2022/07/14 09:08:11;;;;;;;5.03;1.20;;;26.10;48.40;;;;;;5095834;28;20044;-72
2022/07/14 09:10:39;;;;;;;6.70;1.60;;;26.10;48.50;;;;;;5095955;28;20127;-71
2022/07/14 09:13:20;;;;;;;5.32;1.60;;;25.70;49.00;;;;;;5097684;28;20052;-71
2022/07/14 09:15:47;;;;;;;3.60;1.20;;;25.70;48.80;;;;;;5096683;28;20048;-73
2022/07/14 09:18:25;;;;;;;6.50;1.67;;;25.60;49.20;;;;;;5096748;28;20062;-73
2022/07/14 09:20:54;;;;;;;4.53;1.20;;;25.60;49.60;;;;;;5095916;28;20050;-72
2022/07/14 09:23:31;;;;;;;3.28;1.00;;;25.50;49.50;;;;;;5096694;28;20130;-70
2022/07/14 09:26:16;;;;;;;4.47;1.50;;;25.40;50.30;;;;;;5096678;28;20507;-71
2022/07/14 09:28:43;;;;;;;4.10;1.30;;;25.50;50.20;;;;;;5096592;28;20118;-72
2022/07/14 09:31:25;;;;;;;5.70;1.30;;;25.50;49.70;;;;;;5096591;28;20032;-68
2022/07/14 09:33:53;;;;;;;3.97;1.10;;;25.40;49.70;;;;;;5096499;28;20445;-68
2022/07/14 09:36:26;;;;;;;4.32;1.40;;;25.20;50.10;;;;;;5096445;28;20048;-70
2022/07/14 09:38:55;;;;;;;6.67;1.17;;;25.30;50.80;;;;;;5096169;28;20048;-68
2022/07/14 09:41:21;;;;;;;4.83;1.33;;;25.30;50.90;;;;;;5096752;28;20036;-68
2022/07/14 09:44:06;;;;;;;4.70;1.37;;;25.40;50.90;;;;;;5094756;28;20054;-68
2022/07/14 09:46:53;;;;;;;3.43;1.20;;;25.20;51.10;;;;;;5096205;28;20048;-68
2022/07/14 09:49:21;;;;;;;5.07;1.20;;;25.20;51.30;;;;;;5096181;28;20052;-70
2022/07/14 09:52:01;;;;;;;6.37;1.50;;;25.00;51.30;;;;;;5096706;28;20040;-71
2022/07/14 09:54:47;;;;;;;5.43;1.40;;;24.90;52.10;;;;;;5096928;28;20326;-72
2022/07/14 09:57:13;;;;;;;7.73;1.47;;;24.70;52.80;;;;;;5096405;28;20406;-72
2022/07/14 09:59:54;;;;;;;4.07;1.33;;;24.60;53.20;;;;;;5095906;28;20137;-71
2022/07/14 10:02:28;;;;;;;4.90;1.73;;;24.60;53.90;;;;;;5095978;28;20404;-71
2022/07/14 10:04:55;;;;;;;4.90;1.50;;;;;;;;;;5096143;28;20128;-70
2022/07/14 10:07:24;;;;;;;4.80;1.30;;;24.60;53.20;;;;;;5095835;28;20127;-70
2022/07/14 10:09:58;;;;;;;3.70;1.27;;;24.50;53.70;;;;;;5095783;28;20079;-70
2022/07/14 10:12:26;;;;;;;6.53;1.40;;;;;;;;;;5096321;28;20044;-69
2022/07/14 10:14:53;;;;;;;5.10;1.80;;;24.40;53.30;;;;;;5094448;28;20055;-69
2022/07/14 10:17:20;;;;;;;6.17;1.53;;;;;;;;;;5095663;28;20040;-67
2022/07/14 10:19:46;;;;;;;4.43;1.30;;;24.20;54.20;;;;;;5095622;28;20055;-68
2022/07/14 10:22:14;;;;;;;3.70;1.10;;;24.20;54.90;;;;;;5096261;28;20074;-68
2022/07/14 10:24:41;;;;;;;4.23;1.17;;;24.20;55.10;;;;;;5095497;28;20091;-69
2022/07/14 10:27:06;;;;;;;7.17;1.30;;;24.20;55.60;;;;;;5095503;28;20048;-67
2022/07/14 10:29:33;;;;;;;5.70;1.27;;;24.20;56.20;;;;;;5095443;28;20070;-67
2022/07/14 10:31:58;;;;;;;10.87;1.93;;;24.30;56.50;;;;;;5096179;28;20422;-71
2022/07/14 10:34:42;;;;;;;6.20;1.20;;;24.40;56.80;;;;;;5094299;28;20052;-66
2022/07/14 10:37:18;;;;;;;5.43;1.42;;;24.40;56.40;;;;;;5095323;28;20047;-66
2022/07/14 10:39:53;;;;;;;5.90;1.70;;;24.40;55.80;;;;;;5095296;28;20138;-66
2022/07/14 10:42:32;;;;;;;5.60;1.30;;;24.30;56.20;;;;;;5095684;28;20357;-66
2022/07/14 10:45:01;;;;;;;4.70;1.00;;;24.30;56.60;;;;;;5095212;28;20048;-66
2022/07/14 10:47:49;;;;;;;4.13;1.80;;;24.10;56.30;;;;;;5095109;28;20044;-66
2022/07/14 10:50:26;;;;;;;6.53;1.33;;;24.00;58.00;;;;;;5095025;28;20135;-66
2022/07/14 10:52:55;;;;;;;5.00;1.37;;;24.00;58.90;;;;;;5095175;28;20464;-66
2022/07/14 10:55:33;;;;;;;5.10;1.23;;;23.90;58.10;;;;;;5095179;28;20048;-67
2022/07/14 10:57:58;;;;;;;5.60;1.37;;;24.00;57.80;;;;;;5094920;28;20127;-68
2022/07/14 11:00:42;;;;;;;3.97;1.20;;;24.10;56.90;;;;;;5094838;28;20098;-68
2022/07/14 11:03:25;;;;;;;4.63;1.20;;;24.00;57.20;;;;;;5094703;28;20442;-69
2022/07/14 11:06:09;;;;;;;4.13;1.20;;;24.00;57.00;;;;;;5094957;28;20055;-70
2022/07/14 11:08:39;;;;;;;5.03;1.40;;;23.90;56.90;;;;;;5094416;28;20546;-69
2022/07/14 11:11:25;;;;;;;5.53;1.37;;;23.80;57.40;;;;;;5094940;28;20463;-69
2022/07/14 11:14:00;;;;;;;8.73;1.30;;;23.90;57.50;;;;;;5094407;28;20058;-70
2022/07/14 11:16:44;;;;;;;;;;;23.90;57.40;;;;;;5095211;28;20044;-70
2022/07/14 11:19:37;;;;;;;2.33;1.00;;;23.80;58.60;;;;;;5094491;28;19978;-70
2022/07/14 11:22:18;;;;;;;2.93;1.40;;;23.80;58.20;;;;;;5092527;28;20135;-70
2022/07/14 11:24:47;;;;;;;4.67;1.43;;;23.80;57.80;;;;;;5094603;28;20044;-70
2022/07/14 11:27:32;;;;;;;5.93;1.30;;;23.80;58.20;;;;;;5095049;28;20097;-70
2022/07/14 11:30:15;;;;;;;4.97;1.20;;;23.90;59.10;;;;;;5093907;28;20484;-70
2022/07/14 11:32:42;;;;;;;4.37;1.17;;;24.00;58.00;;;;;;5094586;28;20494;-70
2022/07/14 11:38:15;;;;;;;5.38;1.30;;;23.90;57.10;;;;;;5094160;28;20062;-73
2022/07/14 11:40:49;;;;;;;11.80;1.70;;;24.00;56.70;;;;;;5094472;28;20052;-74
2022/07/14 11:43:30;;;;;;;13.35;2.05;;;24.00;55.70;;;;;;5094166;28;20059;-74
2022/07/14 11:46:04;;;;;;;24.10;2.23;;;24.00;55.50;;;;;;5094328;28;20047;-71
2022/07/14 11:48:35;;;;;;;110.65;7.50;;;23.90;55.60;;;;;;5093970;28;20547;-65
2022/07/14 11:51:14;;;;;;;13.13;1.93;;;24.00;55.10;;;;;;5093866;28;20044;-67
2022/07/14 11:53:41;;;;;;;7.03;1.50;;;24.00;55.50;;;;;;5094482;28;20048;-66
2022/07/14 11:56:08;;;;;;;6.27;1.23;;;23.90;54.20;;;;;;5093753;28;20483;-67
2022/07/14 11:58:35;;;;;;;4.67;1.40;;;24.00;54.00;;;;;;5093786;28;20048;-68
2022/07/14 12:01:03;;;;;;;5.97;1.40;;;24.00;53.80;;;;;;5093729;28;20052;-68
2022/07/14 12:03:29;;;;;;;4.93;1.23;;;24.00;53.40;;;;;;5093785;28;20051;-68
2022/07/14 12:05:58;;;;;;;5.13;1.30;;;24.10;53.10;;;;;;5093707;28;20048;-68
2022/07/14 12:08:29;;;;;;;6.03;1.30;;;24.10;52.70;;;;;;5093699;28;20134;-68
2022/07/14 12:11:13;;;;;;;5.17;1.20;;;24.10;52.80;;;;;;5093707;28;20052;-68
2022/07/14 12:13:45;;;;;;;4.53;1.20;;;24.10;53.30;;;;;;5094003;28;20498;-68
2022/07/14 12:16:11;;;;;;;3.03;1.00;;;24.00;52.90;;;;;;5093593;28;20055;-68
2022/07/14 12:18:37;;;;;;;4.37;1.33;;;23.90;52.90;;;;;;5093652;28;20048;-68
2022/07/14 12:21:03;;;;;;;3.07;1.20;;;24.00;52.80;;;;;;5093508;28;20387;-68
2022/07/14 12:23:28;;;;;;;4.60;1.27;;;24.00;52.50;;;;;;5092589;28;20123;-68
2022/07/14 12:26:00;;;;;;;4.43;1.20;;;23.90;52.20;;;;;;5094023;28;20048;-76
2022/07/14 12:28:27;;;;;;;4.07;1.53;;;23.90;52.20;;;;;;5092523;28;20052;-71
2022/07/14 12:30:58;;;;;;;3.40;1.37;;;23.90;52.20;;;;;;5093500;28;20052;-68
2022/07/14 12:33:32;;;;;;;2.87;1.00;;;23.90;52.10;;;;;;5093956;28;20051;-68
2022/07/14 12:36:00;;;;;;;6.55;1.40;;;23.90;52.40;;;;;;5093483;28;20101;-69
2022/07/14 12:38:28;;;;;;;2.73;1.10;;;23.80;52.50;;;;;;5096641;28;20047;-69
2022/07/14 12:40:58;;;;;;;5.50;1.20;;;23.90;52.80;;;;;;5095687;28;20484;-69
2022/07/14 12:43:24;;;;;;;5.20;1.33;;;24.00;53.40;;;;;;5097556;28;20068;-69
2022/07/14 12:46:08;;;;;;;3.80;1.20;;;23.90;53.50;;;;;;5097461;28;20452;-69
2022/07/14 12:48:54;;;;;;;3.95;1.38;;;23.90;54.60;;;;;;5097686;28;20089;-68
2022/07/14 12:51:43;;;;;;;3.70;1.10;;;24.00;53.80;;;;;;5097402;28;20044;-69
2022/07/14 12:54:16;;;;;;;3.77;1.30;;;24.00;53.00;;;;;;5097878;28;20123;-69
2022/07/14 12:56:53;;;;;;;2.85;1.40;;;24.00;52.80;;;;;;5097305;28;20087;-69
2022/07/14 12:59:35;;;;;;;2.93;1.30;;;24.10;52.20;;;;;;5096751;28;20368;-69
2022/07/14 13:02:06;;;;;;;4.80;1.67;;;24.10;51.50;;;;;;5096453;28;20048;-69
2022/07/14 13:04:39;;;;;;;5.00;1.60;;;24.00;51.10;;;;;;5096074;28;20122;-69
2022/07/14 13:07:25;;;;;;;3.30;1.37;;;24.00;51.30;;;;;;5095768;28;20051;-69
2022/07/14 13:10:16;;;;;;;4.77;1.40;;;24.10;51.90;;;;;;5096961;28;20488;-69
2022/07/14 13:12:53;;;;;;;2.83;1.07;;;24.10;50.70;;;;;;5097016;28;20055;-69